createdAt,value
2018-12-31T00:01:00.999Z,46.10
2018-12-31T00:03:27.248Z,46.10
2018-12-31T00:05:53.477Z,46.10
2018-12-31T00:08:21.182Z,46.90
2018-12-31T00:10:47.378Z,46.20
2018-12-31T00:13:13.570Z,46.10
2018-12-31T00:15:39.816Z,46.40
2018-12-31T00:18:06.047Z,46.50
2018-12-31T00:20:32.248Z,46.50
2018-12-31T00:22:58.546Z,46.30
2018-12-31T00:25:24.795Z,46.30
2018-12-31T00:27:51.005Z,46.30
2018-12-31T00:30:17.205Z,46.60
2018-12-31T00:32:43.415Z,46.50
2018-12-31T00:35:11.103Z,46.60
2018-12-31T00:37:37.325Z,46.60
2018-12-31T00:40:03.507Z,46.60
2018-12-31T00:42:29.806Z,46.60
2018-12-31T00:44:56.013Z,46.60
2018-12-31T00:47:22.212Z,46.90
2018-12-31T00:49:48.410Z,46.90
2018-12-31T00:52:14.939Z,46.70
2018-12-31T00:54:41.312Z,46.70
2018-12-31T00:57:07.499Z,46.70
2018-12-31T00:59:33.756Z,46.80
2018-12-31T01:01:59.997Z,46.60
2018-12-31T01:04:26.251Z,46.60
2018-12-31T01:06:52.462Z,46.70
2018-12-31T01:09:18.725Z,46.70
2018-12-31T01:11:44.914Z,46.70
2018-12-31T01:14:11.211Z,46.70
2018-12-31T01:16:37.377Z,46.60
2018-12-31T01:19:03.624Z,46.70
2018-12-31T01:21:29.837Z,46.70
2018-12-31T01:23:56.043Z,46.60
2018-12-31T01:26:22.275Z,46.70
2018-12-31T01:28:48.467Z,46.70
2018-12-31T01:31:15.028Z,46.60
2018-12-31T01:33:41.247Z,46.90
2018-12-31T01:36:07.468Z,46.80
2018-12-31T01:38:33.662Z,46.80
2018-12-31T01:40:59.852Z,46.50
2018-12-31T01:43:26.042Z,46.60
2018-12-31T01:45:52.315Z,46.70
2018-12-31T01:48:18.512Z,46.60
2018-12-31T01:50:45.516Z,46.80
2018-12-31T01:53:11.740Z,46.80
2018-12-31T01:55:38.719Z,46.80
2018-12-31T01:58:04.920Z,46.80
2018-12-31T02:00:31.786Z,46.90
2018-12-31T02:02:57.392Z,46.80
2018-12-31T02:05:23.577Z,46.70
2018-12-31T02:07:51.481Z,46.80
2018-12-31T02:10:17.910Z,46.90
2018-12-31T02:12:44.132Z,47.10
2018-12-31T02:15:10.329Z,47.10
2018-12-31T02:17:37.321Z,47.00
2018-12-31T02:20:03.505Z,47.00
2018-12-31T02:22:29.871Z,46.80
2018-12-31T02:24:56.079Z,46.90
2018-12-31T02:27:22.310Z,47.00
2018-12-31T02:29:49.374Z,46.90
2018-12-31T02:32:15.595Z,46.90
2018-12-31T02:34:42.531Z,46.80
2018-12-31T02:37:08.792Z,46.90
2018-12-31T02:39:35.212Z,47.10
2018-12-31T02:42:01.446Z,47.10
2018-12-31T02:44:30.997Z,46.90
2018-12-31T02:46:57.191Z,47.00
2018-12-31T02:49:23.367Z,46.90
2018-12-31T02:51:49.639Z,46.90
2018-12-31T02:54:16.555Z,47.20
2018-12-31T02:56:42.793Z,47.10
2018-12-31T02:59:08.986Z,47.30
2018-12-31T03:01:35.221Z,47.30
2018-12-31T03:04:01.426Z,47.20
2018-12-31T03:06:27.609Z,47.30
2018-12-31T03:08:53.898Z,47.20
2018-12-31T03:11:20.094Z,47.30
2018-12-31T03:13:46.271Z,47.40
2018-12-31T03:16:13.231Z,47.70
2018-12-31T03:18:39.460Z,47.60
2018-12-31T03:21:05.637Z,47.60
2018-12-31T03:23:31.832Z,47.60
2018-12-31T03:25:58.156Z,47.70
2018-12-31T03:28:24.372Z,47.80
2018-12-31T03:30:50.584Z,47.60
2018-12-31T03:33:16.811Z,47.70
2018-12-31T03:35:42.993Z,47.60
2018-12-31T03:38:09.180Z,47.60
2018-12-31T03:40:36.147Z,47.50
2018-12-31T03:43:02.351Z,47.40
2018-12-31T03:45:28.551Z,47.60
2018-12-31T03:47:54.781Z,47.80
2018-12-31T03:50:21.015Z,47.80
2018-12-31T03:52:47.190Z,47.70
2018-12-31T03:55:13.368Z,47.50
2018-12-31T03:57:39.547Z,47.50
2018-12-31T04:00:05.763Z,47.50
2018-12-31T04:02:31.971Z,47.50
2018-12-31T04:04:59.238Z,47.60
2018-12-31T04:07:25.444Z,47.70
2018-12-31T04:09:51.667Z,47.60
2018-12-31T04:12:17.843Z,47.60
2018-12-31T04:14:44.050Z,47.60
2018-12-31T04:17:10.247Z,47.50
2018-12-31T04:19:36.459Z,47.60
2018-12-31T04:22:02.632Z,47.70
2018-12-31T04:24:28.840Z,47.80
2018-12-31T04:26:55.020Z,47.60
2018-12-31T04:29:21.227Z,47.60
2018-12-31T04:31:47.409Z,47.50
2018-12-31T04:34:14.379Z,47.60
2018-12-31T04:36:41.511Z,47.60
2018-12-31T04:39:07.706Z,47.70
2018-12-31T04:41:33.903Z,47.90
2018-12-31T04:44:00.082Z,47.70
2018-12-31T04:46:26.284Z,47.80
2018-12-31T04:48:52.460Z,47.70
2018-12-31T04:51:19.416Z,47.70
2018-12-31T04:53:45.592Z,47.70
2018-12-31T04:56:11.802Z,47.80
2018-12-31T04:58:37.979Z,47.90
2018-12-31T05:01:04.961Z,48.10
2018-12-31T05:03:31.131Z,48.00
2018-12-31T05:05:57.330Z,48.20
2018-12-31T05:08:23.517Z,48.20
2018-12-31T05:10:50.503Z,48.00
2018-12-31T05:13:16.682Z,47.90
2018-12-31T05:15:42.880Z,48.00
2018-12-31T05:18:09.094Z,48.10
2018-12-31T05:20:35.338Z,48.10
2018-12-31T05:23:01.580Z,48.20
2018-12-31T05:25:27.840Z,48.40
2018-12-31T05:27:54.042Z,48.60
2018-12-31T05:30:20.241Z,48.60
2018-12-31T05:32:46.421Z,48.50
2018-12-31T05:35:13.384Z,48.40
2018-12-31T05:37:39.584Z,48.40
2018-12-31T05:40:05.763Z,48.50
2018-12-31T05:42:31.973Z,48.60
2018-12-31T05:44:58.174Z,48.70
2018-12-31T05:47:25.144Z,48.70
2018-12-31T05:49:51.333Z,48.60
2018-12-31T05:52:17.556Z,48.90
2018-12-31T05:54:43.753Z,48.90
2018-12-31T05:57:09.942Z,48.90
2018-12-31T05:59:36.272Z,48.80
2018-12-31T06:02:02.508Z,48.70
2018-12-31T06:04:29.297Z,49.40
2018-12-31T06:06:55.499Z,48.90
2018-12-31T06:09:21.675Z,48.70
2018-12-31T06:11:48.642Z,48.50
2018-12-31T06:14:14.858Z,48.40
2018-12-31T06:16:41.041Z,48.60
2018-12-31T06:19:07.228Z,48.50
2018-12-31T06:21:33.548Z,48.50
2018-12-31T06:23:59.736Z,48.60
2018-12-31T06:26:25.935Z,48.60
2018-12-31T06:28:52.199Z,48.60
2018-12-31T06:31:18.460Z,48.60
2018-12-31T06:33:44.657Z,48.90
2018-12-31T06:36:10.839Z,48.90
2018-12-31T06:38:37.032Z,48.80
2018-12-31T06:41:03.996Z,48.90
2018-12-31T06:43:30.200Z,48.80
2018-12-31T06:45:56.411Z,48.90
2018-12-31T06:48:22.627Z,48.80
2018-12-31T06:50:48.807Z,48.90
2018-12-31T06:53:15.024Z,48.80
2018-12-31T06:55:41.206Z,49.60
2018-12-31T06:58:07.452Z,49.20
2018-12-31T07:00:33.639Z,49.20
2018-12-31T07:02:59.840Z,49.10
2018-12-31T07:05:26.055Z,49.10
2018-12-31T07:07:52.299Z,49.40
2018-12-31T07:10:19.135Z,49.50
2018-12-31T07:12:46.110Z,49.20
2018-12-31T07:15:12.325Z,49.20
2018-12-31T07:17:38.612Z,49.20
2018-12-31T07:20:04.837Z,49.20
2018-12-31T07:22:31.096Z,49.20
2018-12-31T07:24:57.296Z,49.30
2018-12-31T07:27:23.713Z,49.10
2018-12-31T07:29:49.984Z,49.60
2018-12-31T07:32:16.168Z,49.40
2018-12-31T07:34:43.894Z,49.50
2018-12-31T07:37:10.112Z,49.40
2018-12-31T07:39:36.339Z,49.50
2018-12-31T07:42:02.515Z,49.40
2018-12-31T07:44:28.723Z,49.40
2018-12-31T07:46:54.899Z,49.40
2018-12-31T07:49:21.864Z,49.70
2018-12-31T07:51:48.061Z,49.60
2018-12-31T07:54:15.046Z,49.80
2018-12-31T07:56:41.228Z,49.70
2018-12-31T07:59:07.432Z,50.00
2018-12-31T08:01:33.603Z,50.00
2018-12-31T08:03:59.815Z,49.80
2018-12-31T08:06:25.991Z,49.70
2018-12-31T08:08:52.180Z,49.50
2018-12-31T08:11:19.179Z,49.80
2018-12-31T08:13:45.354Z,49.80
2018-12-31T08:16:11.555Z,49.70
2018-12-31T08:18:37.827Z,49.50
2018-12-31T08:21:04.258Z,49.40
2018-12-31T08:23:30.473Z,49.50
2018-12-31T08:25:56.659Z,49.60
2018-12-31T08:28:23.543Z,49.60
2018-12-31T08:30:49.736Z,49.50
2018-12-31T08:33:15.967Z,49.50
2018-12-31T08:35:42.171Z,49.70
2018-12-31T08:38:08.387Z,49.60
2018-12-31T08:40:34.600Z,50.20
2018-12-31T08:43:00.813Z,49.60
2018-12-31T08:45:27.037Z,49.70
2018-12-31T08:47:53.237Z,49.70
2018-12-31T08:50:19.410Z,49.60
2018-12-31T08:52:45.618Z,49.50
2018-12-31T08:55:11.799Z,49.70
2018-12-31T08:57:38.011Z,49.70
2018-12-31T09:00:04.198Z,49.80
2018-12-31T09:02:31.208Z,50.00
2018-12-31T09:04:57.394Z,49.90
2018-12-31T09:07:23.616Z,50.00
2018-12-31T09:09:49.808Z,49.90
2018-12-31T09:12:16.033Z,50.00
2018-12-31T09:14:42.263Z,49.80
2018-12-31T09:17:08.440Z,49.80
2018-12-31T09:19:34.656Z,49.70
2018-12-31T09:22:00.956Z,49.80
2018-12-31T09:24:27.225Z,49.70
2018-12-31T09:26:54.134Z,49.80
2018-12-31T09:29:20.321Z,49.80
2018-12-31T09:31:46.499Z,49.70
2018-12-31T09:34:12.696Z,49.70
2018-12-31T09:36:40.383Z,49.90
2018-12-31T09:39:06.600Z,49.80
2018-12-31T09:41:34.284Z,50.00
2018-12-31T09:44:00.552Z,50.00
2018-12-31T09:46:26.757Z,50.00
2018-12-31T09:48:52.943Z,50.10
2018-12-31T09:51:19.533Z,50.60
2018-12-31T09:53:45.843Z,50.00
2018-12-31T09:56:12.024Z,50.00
2018-12-31T09:58:38.255Z,50.00
2018-12-31T10:01:04.432Z,49.90
2018-12-31T10:03:30.621Z,49.90
2018-12-31T10:05:57.210Z,49.90
2018-12-31T10:08:23.419Z,50.00
2018-12-31T10:10:49.625Z,50.20
2018-12-31T10:13:15.823Z,50.10
2018-12-31T10:15:42.011Z,50.30
2018-12-31T10:18:08.213Z,50.10
2018-12-31T10:20:35.183Z,50.20
2018-12-31T10:23:01.352Z,50.10
2018-12-31T10:25:27.578Z,50.00
2018-12-31T10:27:53.768Z,50.00
2018-12-31T10:30:19.977Z,50.10
2018-12-31T10:32:46.925Z,50.00
2018-12-31T10:35:13.162Z,50.00
2018-12-31T10:37:39.367Z,49.90
2018-12-31T10:40:05.552Z,49.70
2018-12-31T10:42:31.739Z,49.80
2018-12-31T10:44:57.920Z,49.70
2018-12-31T10:47:24.312Z,49.90
2018-12-31T10:49:50.532Z,49.90
2018-12-31T10:52:16.720Z,50.00
2018-12-31T10:54:42.931Z,49.90
2018-12-31T10:57:09.127Z,50.00
2018-12-31T10:59:35.308Z,50.10
2018-12-31T11:02:01.494Z,50.10
2018-12-31T11:04:27.675Z,49.70
2018-12-31T11:06:53.897Z,50.20
2018-12-31T11:09:20.099Z,50.20
2018-12-31T11:11:47.811Z,50.20
2018-12-31T11:14:15.267Z,50.20
2018-12-31T11:16:40.639Z,50.00
2018-12-31T11:19:06.826Z,50.20
2018-12-31T11:21:33.027Z,50.20
2018-12-31T11:23:59.193Z,50.20
2018-12-31T11:26:25.385Z,50.00
2018-12-31T11:28:51.564Z,50.20
2018-12-31T11:31:17.742Z,50.40
2018-12-31T11:33:43.941Z,50.10
2018-12-31T11:36:10.111Z,50.20
2018-12-31T11:38:36.338Z,50.30
2018-12-31T11:41:02.516Z,50.40
2018-12-31T11:43:28.728Z,50.50
2018-12-31T11:45:55.004Z,50.70
2018-12-31T11:48:21.205Z,50.50
2018-12-31T11:50:47.371Z,50.40
2018-12-31T11:53:13.578Z,50.40
2018-12-31T11:55:39.784Z,50.60
2018-12-31T11:58:05.987Z,50.80
2018-12-31T12:00:32.161Z,50.60
2018-12-31T12:02:58.371Z,50.70
2018-12-31T12:05:24.559Z,50.60
2018-12-31T12:07:50.747Z,50.70
2018-12-31T12:10:16.952Z,50.60
2018-12-31T12:12:43.179Z,50.50
2018-12-31T12:15:10.171Z,50.60
2018-12-31T12:17:36.335Z,50.60
2018-12-31T12:20:02.541Z,50.40
2018-12-31T12:22:28.796Z,50.30
2018-12-31T12:24:55.019Z,50.40
2018-12-31T12:27:21.221Z,50.30
2018-12-31T12:29:47.464Z,50.40
2018-12-31T12:32:13.680Z,50.60
2018-12-31T12:34:39.900Z,50.60
2018-12-31T12:37:06.157Z,50.70
2018-12-31T12:39:32.370Z,50.60
2018-12-31T12:41:58.676Z,50.70
2018-12-31T12:44:24.868Z,50.60
2018-12-31T12:46:51.065Z,50.70
2018-12-31T12:49:17.281Z,50.60
2018-12-31T12:51:43.474Z,50.60
2018-12-31T12:54:09.688Z,50.60
2018-12-31T12:56:36.627Z,51.00
2018-12-31T12:59:02.864Z,50.90
2018-12-31T13:01:29.075Z,51.10
2018-12-31T13:03:55.307Z,51.30
2018-12-31T13:06:21.496Z,51.30
2018-12-31T13:08:47.706Z,51.30
2018-12-31T13:11:13.922Z,51.20
2018-12-31T13:13:40.179Z,51.30
2018-12-31T13:16:06.403Z,51.20
2018-12-31T13:18:32.939Z,51.20
2018-12-31T13:20:59.142Z,51.20
2018-12-31T13:23:25.393Z,51.00
2018-12-31T13:25:51.590Z,51.00
2018-12-31T13:28:17.809Z,50.90
2018-12-31T13:30:44.028Z,50.90
2018-12-31T13:33:10.240Z,51.10
2018-12-31T13:35:37.509Z,50.90
2018-12-31T13:38:03.745Z,50.90
2018-12-31T13:40:29.958Z,50.80
2018-12-31T13:42:56.139Z,51.00
2018-12-31T13:45:22.353Z,51.00
2018-12-31T13:47:48.665Z,50.90
2018-12-31T13:50:14.848Z,51.00
2018-12-31T13:52:41.112Z,51.20
2018-12-31T13:55:07.324Z,51.00
2018-12-31T13:57:34.327Z,51.10
2018-12-31T14:00:00.532Z,51.10
2018-12-31T14:02:27.057Z,51.10
2018-12-31T14:04:53.253Z,51.00
2018-12-31T14:07:19.458Z,50.90
2018-12-31T14:09:45.646Z,50.90
2018-12-31T14:12:11.850Z,51.00
2018-12-31T14:14:38.808Z,50.90
2018-12-31T14:17:05.011Z,50.80
2018-12-31T14:19:32.012Z,50.90
2018-12-31T14:21:58.240Z,50.90
2018-12-31T14:24:25.022Z,50.90
2018-12-31T14:26:51.983Z,51.00
2018-12-31T14:29:18.229Z,50.90
2018-12-31T14:31:44.451Z,50.90
2018-12-31T14:34:10.674Z,50.90
2018-12-31T14:36:36.871Z,50.90
2018-12-31T14:39:03.079Z,51.50
2018-12-31T14:41:29.295Z,50.90
2018-12-31T14:43:55.480Z,51.10
2018-12-31T14:46:23.129Z,51.00
2018-12-31T14:48:48.723Z,51.00
2018-12-31T14:51:14.917Z,51.00
2018-12-31T14:53:41.155Z,51.00
2018-12-31T14:56:07.362Z,51.00
2018-12-31T14:58:34.288Z,50.90
2018-12-31T15:01:00.530Z,50.90
2018-12-31T15:03:26.741Z,50.90
2018-12-31T15:05:52.949Z,50.70
2018-12-31T15:08:19.251Z,50.90
2018-12-31T15:10:45.487Z,50.90
2018-12-31T15:13:11.685Z,50.90
2018-12-31T15:15:37.875Z,50.90
2018-12-31T15:18:04.828Z,51.00
2018-12-31T15:20:31.089Z,50.90
2018-12-31T15:22:57.316Z,51.10
2018-12-31T15:25:23.543Z,51.10
2018-12-31T15:27:49.773Z,50.90
2018-12-31T15:30:16.003Z,51.10
2018-12-31T15:32:42.219Z,50.90
2018-12-31T15:35:08.423Z,50.80
2018-12-31T15:37:34.621Z,50.90
2018-12-31T15:40:00.839Z,50.90
2018-12-31T15:42:27.068Z,50.80
2018-12-31T15:44:53.281Z,50.90
2018-12-31T15:47:19.474Z,50.80
2018-12-31T15:49:46.436Z,50.80
2018-12-31T15:52:12.645Z,50.80
2018-12-31T15:54:38.888Z,50.90
2018-12-31T15:57:05.110Z,50.90
2018-12-31T15:59:31.371Z,50.90
2018-12-31T16:01:57.578Z,50.90
2018-12-31T16:04:23.791Z,50.80
2018-12-31T16:06:50.031Z,50.80
2018-12-31T16:09:16.283Z,50.80
2018-12-31T16:11:42.507Z,50.90
2018-12-31T16:14:09.086Z,50.90
2018-12-31T16:16:35.330Z,50.90
2018-12-31T16:19:01.591Z,50.90
2018-12-31T16:21:27.822Z,50.90
2018-12-31T16:23:54.027Z,50.80
2018-12-31T16:26:20.255Z,50.80
2018-12-31T16:28:46.513Z,51.50
2018-12-31T16:31:12.718Z,50.90
2018-12-31T16:33:38.943Z,50.90
2018-12-31T16:36:05.913Z,50.90
2018-12-31T16:38:32.124Z,50.90
2018-12-31T16:40:58.355Z,50.90
2018-12-31T16:43:24.618Z,50.80
2018-12-31T16:45:50.823Z,50.90
2018-12-31T16:48:17.078Z,50.90
2018-12-31T16:50:43.286Z,50.80
2018-12-31T16:53:09.500Z,50.90
2018-12-31T16:55:35.724Z,50.80
2018-12-31T16:58:01.955Z,50.90
2018-12-31T17:00:28.478Z,50.80
2018-12-31T17:02:54.374Z,50.90
2018-12-31T17:05:21.350Z,50.90
2018-12-31T17:07:47.555Z,50.80
2018-12-31T17:10:13.747Z,50.90
2018-12-31T17:12:40.000Z,50.90
2018-12-31T17:15:06.195Z,51.00
2018-12-31T17:17:32.398Z,50.90
2018-12-31T17:19:58.675Z,50.90
2018-12-31T17:22:24.935Z,50.90
2018-12-31T17:24:51.176Z,50.80
2018-12-31T17:27:18.155Z,50.90
2018-12-31T17:29:43.658Z,50.90
2018-12-31T17:32:09.831Z,51.00
2018-12-31T17:34:36.040Z,51.00
2018-12-31T17:37:02.234Z,51.10
2018-12-31T17:39:28.446Z,51.20
2018-12-31T17:41:54.715Z,51.00
2018-12-31T17:44:20.919Z,51.00
2018-12-31T17:46:47.114Z,51.00
2018-12-31T17:49:13.320Z,51.10
2018-12-31T17:51:40.294Z,51.30
2018-12-31T17:54:06.534Z,51.20
2018-12-31T17:56:32.744Z,51.20
2018-12-31T17:58:58.986Z,51.00
2018-12-31T18:01:25.208Z,51.20
2018-12-31T18:03:51.437Z,51.20
2018-12-31T18:06:18.437Z,51.10
2018-12-31T18:08:44.658Z,51.10
2018-12-31T18:11:10.873Z,51.10
2018-12-31T18:13:37.067Z,51.20
2018-12-31T18:16:03.328Z,51.20
2018-12-31T18:18:29.527Z,51.30
2018-12-31T18:20:55.783Z,51.30
2018-12-31T18:23:22.892Z,51.30
2018-12-31T18:25:49.125Z,51.30
2018-12-31T18:28:15.328Z,51.40
2018-12-31T18:30:41.533Z,51.40
2018-12-31T18:33:09.445Z,51.40
2018-12-31T18:35:36.472Z,51.30
2018-12-31T18:38:02.667Z,51.30
2018-12-31T18:40:28.872Z,51.20
2018-12-31T18:42:55.098Z,51.20
2018-12-31T18:45:21.360Z,51.30
2018-12-31T18:47:47.575Z,51.40
2018-12-31T18:50:13.786Z,51.20
2018-12-31T18:52:40.009Z,51.50
2018-12-31T18:55:06.215Z,51.50
2018-12-31T18:57:32.424Z,51.40
2018-12-31T18:59:59.429Z,51.30
2018-12-31T19:02:25.884Z,51.20
2018-12-31T19:04:52.055Z,51.20
2018-12-31T19:07:18.280Z,51.20
2018-12-31T19:09:44.491Z,51.10
2018-12-31T19:12:10.733Z,51.10
2018-12-31T19:14:36.994Z,51.10
2018-12-31T19:17:03.995Z,51.00
2018-12-31T19:19:30.211Z,50.90
2018-12-31T19:21:56.379Z,50.80
2018-12-31T19:24:22.696Z,50.80
2018-12-31T19:26:48.987Z,50.80
2018-12-31T19:29:15.184Z,50.80
2018-12-31T19:31:41.386Z,50.70
2018-12-31T19:34:07.603Z,50.70
2018-12-31T19:36:33.879Z,50.60
2018-12-31T19:39:00.089Z,50.60
2018-12-31T19:41:26.353Z,50.60
2018-12-31T19:43:52.563Z,50.60
2018-12-31T19:46:18.751Z,50.50
2018-12-31T19:48:45.677Z,50.60
2018-12-31T19:51:11.907Z,50.60
2018-12-31T19:53:38.454Z,50.50
2018-12-31T19:56:04.675Z,50.50
2018-12-31T19:58:30.858Z,50.50
2018-12-31T20:00:58.592Z,50.40
2018-12-31T20:03:24.824Z,50.30
2018-12-31T20:05:51.021Z,50.50
2018-12-31T20:08:17.224Z,50.40
2018-12-31T20:10:43.446Z,50.50
2018-12-31T20:13:09.652Z,50.40
2018-12-31T20:15:35.879Z,50.40
2018-12-31T20:18:02.104Z,50.30
2018-12-31T20:20:28.347Z,50.50
2018-12-31T20:22:54.568Z,50.50
2018-12-31T20:25:20.792Z,50.50
2018-12-31T20:27:47.018Z,50.60
2018-12-31T20:30:13.241Z,51.20
2018-12-31T20:32:39.453Z,50.60
2018-12-31T20:35:06.537Z,50.60
2018-12-31T20:37:32.785Z,50.70
2018-12-31T20:39:59.206Z,50.60
2018-12-31T20:42:26.916Z,50.50
2018-12-31T20:44:53.343Z,50.50
2018-12-31T20:47:19.586Z,50.40
2018-12-31T20:49:45.800Z,50.40
2018-12-31T20:52:12.014Z,50.50
2018-12-31T20:54:38.244Z,50.30
2018-12-31T20:57:05.224Z,50.50
2018-12-31T20:59:31.401Z,50.50
2018-12-31T21:01:57.625Z,50.50
2018-12-31T21:04:23.836Z,50.50
2018-12-31T21:06:50.029Z,50.60
2018-12-31T21:09:16.215Z,50.50
2018-12-31T21:11:42.422Z,50.40
2018-12-31T21:14:09.617Z,50.40
2018-12-31T21:16:35.858Z,50.30
2018-12-31T21:19:02.076Z,50.30
2018-12-31T21:21:28.284Z,50.30
2018-12-31T21:23:54.528Z,50.40
2018-12-31T21:26:20.758Z,50.50
2018-12-31T21:28:46.971Z,50.50
2018-12-31T21:31:13.909Z,50.50
2018-12-31T21:33:40.901Z,50.30
2018-12-31T21:36:07.123Z,50.30
2018-12-31T21:38:33.319Z,50.40
2018-12-31T21:40:59.509Z,50.40
2018-12-31T21:43:25.737Z,50.40
2018-12-31T21:45:51.936Z,50.50
2018-12-31T21:48:18.161Z,50.50
2018-12-31T21:50:44.366Z,50.50
2018-12-31T21:53:10.564Z,50.60
2018-12-31T21:55:36.834Z,50.60
2018-12-31T21:58:03.815Z,50.70
2018-12-31T22:00:30.005Z,50.60
2018-12-31T22:02:57.149Z,50.60
2018-12-31T22:05:22.459Z,50.80
2018-12-31T22:07:48.668Z,50.90
2018-12-31T22:10:14.882Z,50.90
2018-12-31T22:12:41.830Z,51.00
2018-12-31T22:15:08.024Z,51.00
2018-12-31T22:17:34.212Z,51.00
2018-12-31T22:20:00.415Z,51.00
2018-12-31T22:22:26.665Z,51.00
2018-12-31T22:24:53.042Z,51.00
2018-12-31T22:27:19.265Z,51.10
2018-12-31T22:29:45.525Z,51.10
2018-12-31T22:32:11.721Z,51.30
2018-12-31T22:34:37.939Z,51.30
2018-12-31T22:37:05.470Z,51.30
2018-12-31T22:39:31.678Z,51.40
2018-12-31T22:41:57.863Z,51.50
2018-12-31T22:44:24.085Z,51.60
2018-12-31T22:46:50.351Z,51.40
2018-12-31T22:49:16.545Z,51.40
2018-12-31T22:51:42.862Z,51.40
2018-12-31T22:54:09.230Z,51.60
2018-12-31T22:56:35.452Z,51.40
2018-12-31T22:59:01.701Z,51.40
2018-12-31T23:01:28.246Z,51.40
2018-12-31T23:03:54.799Z,51.30
2018-12-31T23:06:21.176Z,51.30
2018-12-31T23:08:47.409Z,51.30
2018-12-31T23:11:14.391Z,51.30
2018-12-31T23:13:40.597Z,51.30
2018-12-31T23:16:06.839Z,51.40
2018-12-31T23:18:33.788Z,51.60
2018-12-31T23:21:00.008Z,51.50
2018-12-31T23:23:26.230Z,51.50
2018-12-31T23:25:52.443Z,51.40
2018-12-31T23:28:18.716Z,51.50
2018-12-31T23:30:44.896Z,51.50
2018-12-31T23:33:11.144Z,51.60
2018-12-31T23:35:37.349Z,51.60
2018-12-31T23:38:03.559Z,51.60
2018-12-31T23:40:29.764Z,51.60
2018-12-31T23:42:55.964Z,51.60
2018-12-31T23:45:22.936Z,51.40
2018-12-31T23:47:49.202Z,51.40
2018-12-31T23:50:15.413Z,51.50
2018-12-31T23:52:41.627Z,51.70
2018-12-31T23:55:07.995Z,51.60
2018-12-31T23:57:34.196Z,51.60
